x

West Santa Barbara 38 Nm West Of Santa Barbara, Ca (46054) Wave Buoy

3:50 - Tue 24th May 2016 All times are PDT. -7 hours from GMT.

  • Sig Wave height 3.0ft
  • Swell Direction
  • Peak Period 16s
  • Average Period 5s
  • Wind
    11mph, 13mph gusts
  • Sea Temp 55°f
  • Air Temp 55°f
  • Sea Pressure 1013.3mb
  • West Santa Barbara  38 Nm West Of Santa Barbara, Ca
  • West Santa Barbara  38 Nm West Of Santa Barbara, Ca

More Historic Weather Station data

Upgrade to MSW Pro to gain access to the past 30 days of data for over 8000 Wavebouys and Weather Stations around the globe.

Join Pro

Comparision Forecast

View Surf forecast
   
mar. 05/24 3:50 3ft 16s 5s 11 13 mph 1013.3mb 55f 55f
2:50 3.5ft 5s 5s 13 16 mph 1013mb 56f 55f
1:50 3.5ft 6s 5s 13 16 mph 1013.2mb 56f 55f
12:50 3.5ft 10s 5s 13 16 mph 1013.3mb 55f 55f
lun. 05/23 11:50 3.5ft 5s 5s 13 16 mph 1013.3mb 55f 56f
10:50 3.5ft 5s 5s 16 18 mph 1013.3mb 55f 56f
9:50 3.5ft 6s 5s 16 18 mph 1013.1mb 55f 56f
8:50 4ft 6s 5s 18 20 mph 1012.5mb 55f 56f
7:50 4ft 6s 5s 16 18 mph 1012.4mb 55f 56f
6:50 3.5ft 6s 5s 16 18 mph 1012.4mb 56f 56f
5:50 3.5ft 6s 5s 16 20 mph 1012.8mb 56f 56f
4:50 3.5ft 6s 5s 16 18 mph 1013.3mb 56f 56f
3:50 4.5ft 6s 5s 16 20 mph 1013.7mb 56f 56f
2:50 4.5ft 6s 5s 18 20 mph 1013.9mb 56f 56f
1:50 4.5ft 6s 5s 18 22 mph 1013.9mb 56f 56f
12:50 4.5ft 6s 5s 20 22 mph 1014.1mb 56f 56f
11:50 4.5ft 6s 5s 22 25 mph 1014.2mb 55f 55f
10:50 4.5ft 6s 5s 20 25 mph 1014.1mb 55f 55f
9:50 5ft 6s 5s 20 25 mph 1014.1mb 55f 55f
8:50 5ft 6s 5s 22 27 mph 1014.1mb 55f 55f
7:50 5ft 5s 5s 22 27 mph 1013.7mb 55f 55f
6:50 5ft 5s 5s 22 27 mph 1013.4mb 55f 55f
5:50 4.5ft 5s 5s 25 29 mph 1012.8mb 55f 55f
4:50 4.5ft 11s 5s 22 29 mph 1013.3mb 55f 55f
3:50 5ft 9s  -  22 27 mph 1013.4mb 55f 55f
2:50 4.5ft 11s 5s 22 27 mph 1013.7mb 55f 55f
1:50 5ft 5s 5s 22 27 mph 1014.2mb 55f 55f
12:50 4.5ft 10s 5s 18 22 mph 1014.8mb 55f 55f
dim. 05/22 11:50 5ft 11s 5s 20 22 mph 1015.2mb 54f 55f
10:50 5ft 10s 5s 20 25 mph 1015.4mb 55f 55f
9:50 5ft 11s 5s 20 25 mph 1015.4mb 55f 55f
8:50 5ft 11s 5s 22 25 mph 1015mb 55f 56f
7:50 5ft 11s 5s 22 29 mph 1015mb 55f 56f
6:50 5ft 11s 5s 22 27 mph 1015.1mb 55f 56f
5:50 5.5ft 11s 5s 22 27 mph 1015.5mb 55f 56f
4:50 5ft 10s 5s 22 27 mph 1015.9mb 55f 56f
3:50 5.5ft 10s 5s 20 25 mph 1016.5mb 55f 56f
2:50 6ft 10s 5s 22 27 mph 1016.9mb 55f 56f
1:50 5ft 8s 5s 20 27 mph 1017.3mb 55f 56f
12:50 5ft 11s 6s 22 27 mph 1017.8mb 55f 55f
11:50 5ft 11s 6s 20 25 mph 1018.2mb 55f 55f
10:50 5ft 11s 6s 20 25 mph 1018.3mb 54f 55f
9:50 5ft 10s 6s 18 20 mph 1018.4mb 54f 55f
8:50 5ft 11s 6s 18 22 mph 1018.4mb 54f 55f
7:50 5ft 10s 6s 20 25 mph 1018.1mb 54f 55f
6:50 5ft 11s 6s 22 25 mph 1017.6mb 54f 55f
5:50 5ft 10s 6s 20 25 mph 1017.1mb 55f 54f
4:50 5ft 10s 6s 20 22 mph 1017mb 55f 55f
3:50 5.5ft 10s 6s 20 22 mph 1017.3mb 55f 55f
2:50 5ft 10s 6s 18 22 mph 1017.2mb 55f 55f
1:50 6ft 10s 7s 16 18 mph 1017.6mb 55f 55f
12:50 5.5ft 9s 7s 16 18 mph 1017.8mb 55f 55f
sam. 05/21 11:50 5ft 11s 7s 13 16 mph 1018mb 55f 55f
10:50 5.5ft 10s 7s 13 16 mph 1018.2mb 55f 55f
9:50 6ft 10s 7s 11 16 mph 1017.9mb 55f 55f
8:50 6ft 10s 7s 13 16 mph 1017.6mb 55f 56f
7:50 6ft 10s 6s 16 18 mph 1017.3mb 55f 56f
6:50 6ft 10s 6s 18 20 mph 1017.1mb 56f 56f
5:50 6ft 10s 6s 18 22 mph 1017mb 56f 57f
4:50 6ft 10s 7s 18 22 mph 1016.8mb 56f 56f
3:50 6ft 10s 7s 18 22 mph 1016.8mb 57f 56f
2:50 6ft 9s 7s 18 20 mph 1016.6mb 57f 56f
1:50 5.5ft 10s 7s 18 20 mph 1016.7mb 57f 56f
12:50 7ft 9s 7s 18 22 mph 1016.8mb 57f 56f
11:50 7ft 10s 7s 18 20 mph 1016.5mb 57f 55f
10:50 7ft 10s 8s 16 20 mph 1016.2mb 57f 55f
9:50 6.5ft 9s 7s 16 20 mph 1016.1mb 57f 55f
8:50 7ft 10s 7s 16 18 mph 1015.9mb 57f 55f
7:50 6ft 11s 7s 18 20 mph 1015.4mb 57f 55f
6:50 6ft 10s 7s 18 22 mph 1014.8mb 57f 55f
5:50 6.5ft 9s 7s 16 20 mph 1014.2mb 57f 55f
4:50 7ft 11s 7s 16 18 mph 1014.3mb 57f 55f
3:50 6.5ft 9s 7s 16 20 mph 1014.2mb 57f 55f
2:50 7ft 10s 7s 18 20 mph 1014.3mb 57f 55f
1:50 7ft 9s 7s 18 20 mph 1014.4mb 57f 55f
12:50 7ft 11s 7s 16 20 mph 1014.6mb 57f 55f
ven. 05/20 11:50 7ft 10s 7s 18 20 mph 1014.4mb 57f 56f
10:50 8ft 11s 7s 16 20 mph 1014.4mb 58f 56f
9:50 7.5ft 11s 7s 18 22 mph 1014mb 58f 56f
8:50 7.5ft 10s 7s 18 22 mph 1013.3mb 59f 56f
7:50 8ft 10s 7s 22 29 mph 1012.7mb 59f 56f
6:50 8ft 10s 7s 22 27 mph 1012.5mb 58f 57f
5:50 8ft 10s 7s 18 22 mph 1012.5mb 58f 57f
4:50 9ft 10s 7s 20 25 mph 1012.4mb 58f 56f
3:50 9.5ft 10s 8s 20 25 mph 1012.5mb 58f 56f
2:50 10ft 11s 8s 18 22 mph 1012.9mb 58f 56f
1:50 10ft 11s 8s 18 20 mph 1013mb 57f 56f
12:50 10ft 11s 8s 18 22 mph 1013.1mb 57f 56f